createdAt,value
2024-02-24T00:02:00.100Z,98761.09
2024-02-24T00:04:31.220Z,98760.83
2024-02-24T00:07:02.005Z,98761.80
2024-02-24T00:09:32.724Z,98754.48
2024-02-24T00:12:03.474Z,98751.20
2024-02-24T00:14:34.432Z,98747.29
2024-02-24T00:17:05.365Z,98750.41
2024-02-24T00:19:36.097Z,98760.01
2024-02-24T00:22:06.909Z,98756.81
2024-02-24T00:24:37.512Z,98753.35
2024-02-24T00:27:08.690Z,98754.48
2024-02-24T00:29:39.467Z,98751.88
2024-02-24T00:32:10.978Z,98754.86
2024-02-24T00:34:41.823Z,98758.28
2024-02-24T00:37:12.866Z,98761.95
2024-02-24T00:39:43.563Z,98755.09
2024-02-24T00:42:14.309Z,98756.70
2024-02-24T00:44:45.068Z,98760.65
2024-02-24T00:47:15.891Z,98765.83
2024-02-24T00:49:46.657Z,98774.52
2024-02-24T00:52:17.372Z,98771.45
2024-02-24T00:54:47.988Z,98771.14
2024-02-24T00:57:18.696Z,98772.30
2024-02-24T00:59:49.399Z,98769.16
2024-02-24T01:02:20.089Z,98767.34
2024-02-24T01:04:53.465Z,98760.67
2024-02-24T01:07:24.296Z,98760.16
2024-02-24T01:09:55.032Z,98759.33
2024-02-24T01:12:25.703Z,98755.86
2024-02-24T01:14:58.610Z,98748.27
2024-02-24T01:17:29.685Z,98746.81
2024-02-24T01:20:00.797Z,98743.21
2024-02-24T01:22:31.446Z,98745.09
2024-02-24T01:25:02.297Z,98745.27
2024-02-24T01:27:32.993Z,98744.06
2024-02-24T01:30:03.724Z,98743.26
2024-02-24T01:32:34.455Z,98744.02
2024-02-24T01:35:08.938Z,98739.61
2024-02-24T01:37:40.028Z,98738.53
2024-02-24T01:40:11.971Z,98740.95
2024-02-24T01:42:45.343Z,98744.83
2024-02-24T01:45:16.218Z,98746.24
2024-02-24T01:47:47.308Z,98748.08
2024-02-24T01:50:18.686Z,98745.59
2024-02-24T01:52:51.430Z,98746.75
2024-02-24T01:55:22.729Z,98743.25
2024-02-24T01:57:55.849Z,98740.35
2024-02-24T02:00:26.838Z,98743.60
2024-02-24T02:02:59.368Z,98749.98
2024-02-24T02:05:30.530Z,98754.88
2024-02-24T02:08:01.416Z,98761.59
2024-02-24T02:13:28.669Z,98764.67
2024-02-24T02:16:00.522Z,98766.11
2024-02-24T02:18:33.715Z,98767.37
2024-02-24T02:21:07.685Z,98766.64
2024-02-24T02:23:38.474Z,98765.82
2024-02-24T02:26:09.480Z,98763.00
2024-02-24T02:28:40.311Z,98767.52
2024-02-24T02:31:10.994Z,98773.00
2024-02-24T02:33:41.813Z,98774.00
2024-02-24T02:36:12.727Z,98769.77
2024-02-24T02:38:43.533Z,98774.63
2024-02-24T02:41:14.330Z,98773.68
2024-02-24T02:43:45.063Z,98776.66
2024-02-24T02:46:15.928Z,98783.64
2024-02-24T02:48:46.783Z,98790.38
2024-02-24T02:51:17.638Z,98791.58
2024-02-24T02:53:48.361Z,98791.71
2024-02-24T02:56:22.102Z,98793.79
2024-02-24T02:58:53.170Z,98800.32
2024-02-24T03:01:24.193Z,98804.69
2024-02-24T03:03:54.924Z,98802.36
2024-02-24T03:06:26.341Z,98802.52
2024-02-24T03:08:57.460Z,98801.73
2024-02-24T03:11:28.572Z,98804.67
2024-02-24T03:13:59.451Z,98802.08
2024-02-24T03:16:30.177Z,98800.24
2024-02-24T03:19:00.963Z,98797.95
2024-02-24T03:21:33.677Z,98799.85
2024-02-24T03:24:07.068Z,98804.14
2024-02-24T03:26:37.895Z,98808.05
2024-02-24T03:29:08.758Z,98813.29
2024-02-24T03:31:39.434Z,98813.48
2024-02-24T03:34:10.185Z,98816.05
2024-02-24T03:36:41.017Z,98823.23
2024-02-24T03:39:11.636Z,98817.99
2024-02-24T03:41:42.264Z,98818.13
2024-02-24T03:44:13.228Z,98812.88
2024-02-24T03:46:45.112Z,98809.31
2024-02-24T03:49:15.955Z,98803.36
2024-02-24T03:51:46.786Z,98804.88
2024-02-24T03:54:17.519Z,98808.42
2024-02-24T03:56:51.246Z,98811.61
2024-02-24T03:59:22.116Z,98813.91
2024-02-24T04:01:53.013Z,98818.38
2024-02-24T04:04:23.883Z,98818.65
2024-02-24T04:06:54.646Z,98820.65
2024-02-24T04:09:25.317Z,98820.05
2024-02-24T04:11:55.987Z,98820.30
2024-02-24T04:14:26.791Z,98826.77
2024-02-24T04:16:57.687Z,98830.37
2024-02-24T04:19:28.366Z,98836.31
2024-02-24T04:21:59.145Z,98837.11
2024-02-24T04:24:29.839Z,98839.75
2024-02-24T04:27:00.485Z,98836.84
2024-02-24T04:29:31.193Z,98831.90
2024-02-24T04:32:02.017Z,98831.53
2024-02-24T04:34:32.746Z,98823.37
2024-02-24T04:37:03.581Z,98823.19
2024-02-24T04:39:34.195Z,98828.01
2024-02-24T04:42:05.600Z,98829.48
2024-02-24T04:44:36.351Z,98836.14
2024-02-24T04:47:07.446Z,98841.16
2024-02-24T04:49:38.291Z,98842.80
2024-02-24T04:52:09.200Z,98851.55
2024-02-24T04:54:39.802Z,98848.06
2024-02-24T04:57:10.436Z,98861.27
2024-02-24T04:59:41.136Z,98858.71
2024-02-24T05:02:11.993Z,98866.16
2024-02-24T05:04:42.656Z,98868.05
2024-02-24T05:07:13.626Z,98874.71
2024-02-24T05:09:44.366Z,98875.39
2024-02-24T05:12:15.639Z,98870.20
2024-02-24T05:14:48.846Z,98874.02
2024-02-24T05:17:19.608Z,98871.50
2024-02-24T05:19:50.554Z,98873.80
2024-02-24T05:22:21.221Z,98870.48
2024-02-24T05:24:51.894Z,98870.64
2024-02-24T05:27:22.604Z,98874.80
2024-02-24T05:29:53.243Z,98875.39
2024-02-24T05:32:24.276Z,98868.84
2024-02-24T05:34:55.013Z,98866.05
2024-02-24T05:37:25.744Z,98868.14
2024-02-24T05:39:56.909Z,98871.56
2024-02-24T05:42:29.051Z,98877.13
2024-02-24T05:44:59.814Z,98879.62
2024-02-24T05:47:30.660Z,98884.56
2024-02-24T05:50:01.436Z,98884.66
2024-02-24T05:52:32.417Z,98886.64
2024-02-24T05:55:03.368Z,98888.66
2024-02-24T05:57:34.124Z,98890.21
2024-02-24T06:00:06.445Z,98894.83
2024-02-24T06:02:57.087Z,98892.63
2024-02-24T06:05:28.087Z,98896.15
2024-02-24T06:07:59.132Z,98894.71
2024-02-24T06:10:29.867Z,98892.57
2024-02-24T06:13:01.581Z,98896.85
2024-02-24T06:15:32.455Z,98900.37
2024-02-24T06:18:03.358Z,98905.65
2024-02-24T06:20:34.385Z,98910.55
2024-02-24T06:23:05.576Z,98922.14
2024-02-24T06:25:36.238Z,98926.19
2024-02-24T06:28:11.895Z,98922.80
2024-02-24T06:30:42.971Z,98918.77
2024-02-24T06:33:13.880Z,98917.02
2024-02-24T06:35:44.658Z,98923.81
2024-02-24T06:38:15.590Z,98925.15
2024-02-24T06:40:46.956Z,98928.94
2024-02-24T06:43:17.861Z,98929.36
2024-02-24T06:45:48.572Z,98931.48
2024-02-24T06:48:19.395Z,98932.81
2024-02-24T06:50:50.191Z,98929.77
2024-02-24T06:53:21.006Z,98929.42
2024-02-24T06:55:51.652Z,98932.14
2024-02-24T06:58:22.915Z,98934.13
2024-02-24T07:00:53.608Z,98938.05
2024-02-24T07:03:24.593Z,98943.33
2024-02-24T07:05:55.427Z,98947.98
2024-02-24T07:08:26.249Z,98951.37
2024-02-24T07:10:57.293Z,98948.86
2024-02-24T07:13:28.104Z,98953.96
2024-02-24T07:15:58.805Z,98955.78
2024-02-24T07:18:29.579Z,98953.41
2024-02-24T07:21:03.547Z,98958.55
2024-02-24T07:23:34.943Z,98959.02
2024-02-24T07:26:06.236Z,98958.15
2024-02-24T07:28:37.081Z,98964.20
2024-02-24T07:31:07.870Z,98969.96
2024-02-24T07:33:38.718Z,98973.94
2024-02-24T07:36:10.535Z,98976.88
2024-02-24T07:38:43.883Z,98979.55
2024-02-24T07:41:14.963Z,98989.86
2024-02-24T07:43:45.870Z,98988.85
2024-02-24T07:46:28.767Z,98984.14
2024-02-24T07:49:00.819Z,98994.16
2024-02-24T07:51:32.419Z,98994.11
2024-02-24T07:54:03.341Z,98997.73
2024-02-24T07:56:34.090Z,98996.14
2024-02-24T07:59:05.028Z,98997.77
2024-02-24T08:01:35.781Z,99003.48
2024-02-24T08:04:07.042Z,99002.36
2024-02-24T08:06:37.948Z,99000.04
2024-02-24T08:09:08.778Z,98997.77
2024-02-24T08:11:41.835Z,98999.23
2024-02-24T08:14:13.438Z,98999.58
2024-02-24T08:16:44.269Z,98995.96
2024-02-24T08:19:15.065Z,99001.72
2024-02-24T08:21:45.772Z,99006.30
2024-02-24T08:24:17.707Z,99009.74
2024-02-24T08:26:49.531Z,99011.66
2024-02-24T08:29:20.358Z,99011.70
2024-02-24T08:31:51.488Z,99014.66
2024-02-24T08:34:22.227Z,99016.32
2024-02-24T08:36:54.192Z,99021.66
2024-02-24T08:39:25.020Z,99016.35
2024-02-24T08:41:55.809Z,99020.58
2024-02-24T08:44:26.541Z,99018.52
2024-02-24T08:46:57.237Z,99021.41
2024-02-24T08:49:28.025Z,99024.53
2024-02-24T08:51:58.769Z,99027.64
2024-02-24T08:54:29.463Z,99036.45
2024-02-24T08:57:01.228Z,99041.05
2024-02-24T08:59:32.688Z,99039.45
2024-02-24T09:02:03.468Z,99040.48
2024-02-24T09:04:34.233Z,99044.50
2024-02-24T09:07:05.828Z,99035.64
2024-02-24T09:09:36.766Z,99033.03
2024-02-24T09:12:08.793Z,99027.77
2024-02-24T09:14:39.826Z,99035.59
2024-02-24T09:17:10.589Z,99039.08
2024-02-24T09:19:44.312Z,99038.96
2024-02-24T09:22:15.675Z,99037.50
2024-02-24T09:24:46.380Z,99033.21
2024-02-24T09:27:17.099Z,99036.90
2024-02-24T09:29:47.844Z,99036.77
2024-02-24T09:32:19.426Z,99039.48
2024-02-24T09:34:50.057Z,99044.58
2024-02-24T09:37:20.786Z,99045.05
2024-02-24T09:39:51.526Z,99046.71
2024-02-24T09:42:27.349Z,99045.33
2024-02-24T09:45:03.588Z,99049.59
2024-02-24T09:47:34.901Z,99054.19
2024-02-24T09:50:06.370Z,99052.02
2024-02-24T09:52:37.048Z,99052.79
2024-02-24T09:55:09.238Z,99051.19
2024-02-24T09:57:40.786Z,99056.91
2024-02-24T10:00:13.891Z,99058.83
2024-02-24T10:02:47.608Z,99063.58
2024-02-24T10:05:19.665Z,99072.54
2024-02-24T10:07:50.755Z,99077.35
2024-02-24T10:10:24.884Z,99076.55
2024-02-24T10:13:03.686Z,99080.77
2024-02-24T10:15:36.934Z,99083.70
2024-02-24T10:18:08.516Z,99089.42
2024-02-24T10:20:39.601Z,99087.55
2024-02-24T10:23:13.338Z,99092.31
2024-02-24T10:25:42.534Z,99095.64
2024-02-24T10:28:14.466Z,99095.19
2024-02-24T10:30:45.118Z,99097.34
2024-02-24T10:33:16.636Z,99093.96
2024-02-24T10:35:52.355Z,99098.44
2024-02-24T10:38:34.541Z,99101.30
2024-02-24T10:41:11.972Z,99100.95
2024-02-24T10:43:43.482Z,99105.90
2024-02-24T10:46:14.240Z,99106.64
2024-02-24T10:48:47.220Z,99115.09
2024-02-24T10:51:18.217Z,99114.98
2024-02-24T10:53:53.980Z,99110.34
2024-02-24T10:56:25.484Z,99104.52
2024-02-24T10:59:09.244Z,99099.39
2024-02-24T11:01:45.583Z,99110.90
2024-02-24T11:04:18.283Z,99114.92
2024-02-24T11:06:50.875Z,99116.22
2024-02-24T11:09:31.104Z,99114.98
2024-02-24T11:12:13.785Z,99107.98
2024-02-24T11:14:48.856Z,99122.86
2024-02-24T11:17:48.909Z,99126.08
2024-02-24T11:21:00.135Z,99122.59
2024-02-24T11:23:38.060Z,99126.40
2024-02-24T11:26:30.935Z,99124.64
2024-02-24T11:29:08.244Z,99126.47
2024-02-24T11:31:46.241Z,99127.60
2024-02-24T11:34:17.060Z,99126.95
2024-02-24T11:36:49.023Z,99127.24
2024-02-24T11:39:21.481Z,99129.87
2024-02-24T11:41:52.563Z,99133.79
2024-02-24T11:44:23.470Z,99134.79
2024-02-24T11:46:55.021Z,99141.38
2024-02-24T11:49:27.873Z,99143.56
2024-02-24T11:51:59.641Z,99139.33
2024-02-24T11:54:32.371Z,99143.98
2024-02-24T11:57:05.743Z,99143.45
2024-02-24T11:59:35.426Z,99147.21
2024-02-24T12:02:06.396Z,99150.02
2024-02-24T12:04:37.502Z,99146.41
2024-02-24T12:07:08.967Z,99147.61
2024-02-24T12:09:39.746Z,99147.88
2024-02-24T12:12:11.488Z,99146.84
2024-02-24T12:14:42.674Z,99151.92
2024-02-24T12:17:14.639Z,99158.08
2024-02-24T12:19:46.529Z,99160.66
2024-02-24T12:22:17.231Z,99170.59
2024-02-24T12:24:47.955Z,99168.69
2024-02-24T12:27:20.622Z,99176.23
2024-02-24T12:29:52.842Z,99175.71
2024-02-24T12:32:24.032Z,99182.10
2024-02-24T12:35:05.500Z,99185.92
2024-02-24T12:37:37.332Z,99189.55
2024-02-24T12:40:26.868Z,99190.63
2024-02-24T12:42:57.985Z,99188.53
2024-02-24T12:45:29.030Z,99191.79
2024-02-24T12:48:00.106Z,99194.45
2024-02-24T12:50:30.872Z,99195.83
2024-02-24T12:53:06.341Z,99197.39
2024-02-24T12:55:37.761Z,99197.02
2024-02-24T12:58:09.934Z,99202.80
2024-02-24T13:00:40.678Z,99203.65
2024-02-24T13:03:11.758Z,99210.89
2024-02-24T13:05:42.932Z,99213.05
2024-02-24T13:08:13.806Z,99210.70
2024-02-24T13:10:45.072Z,99208.86
2024-02-24T13:13:16.115Z,99206.37
2024-02-24T13:15:47.703Z,99209.96
2024-02-24T13:18:19.616Z,99208.80
2024-02-24T13:20:50.799Z,99209.74
2024-02-24T13:23:21.737Z,99209.54
2024-02-24T13:25:52.493Z,99211.88
2024-02-24T13:28:23.239Z,99210.55
2024-02-24T13:30:53.956Z,99211.84
2024-02-24T13:33:25.152Z,99212.79
2024-02-24T13:35:56.347Z,99215.37
2024-02-24T13:38:27.242Z,99211.19
2024-02-24T13:40:58.145Z,99207.74
2024-02-24T13:43:28.819Z,99209.19
2024-02-24T13:45:59.700Z,99216.95
2024-02-24T13:48:30.824Z,99215.52
2024-02-24T13:51:01.725Z,99216.69
2024-02-24T13:53:33.232Z,99222.72
2024-02-24T13:56:05.133Z,99223.02
2024-02-24T13:58:38.283Z,99234.05
2024-02-24T14:01:09.052Z,99239.89
2024-02-24T14:03:39.768Z,99246.02
2024-02-24T14:06:10.700Z,99254.94
2024-02-24T14:08:42.374Z,99252.70
2024-02-24T14:11:13.251Z,99258.77
2024-02-24T14:13:44.469Z,99262.54
2024-02-24T14:16:15.336Z,99266.41
2024-02-24T14:18:46.181Z,99272.17
2024-02-24T14:21:17.097Z,99272.98
2024-02-24T14:23:47.941Z,99276.06
2024-02-24T14:26:19.067Z,99275.34
2024-02-24T14:29:00.486Z,99280.64
2024-02-24T14:31:33.165Z,99285.05
2024-02-24T14:34:04.084Z,99286.96
2024-02-24T14:36:35.029Z,99292.04
2024-02-24T14:39:06.823Z,99296.66
2024-02-24T14:41:37.574Z,99296.94
2024-02-24T14:44:08.461Z,99294.73
2024-02-24T14:46:57.694Z,99293.39
2024-02-24T14:49:28.413Z,99294.20
2024-02-24T14:51:59.456Z,99295.27
2024-02-24T14:54:31.032Z,99294.33
2024-02-24T14:57:01.899Z,99294.45
2024-02-24T14:59:32.749Z,99296.79
2024-02-24T15:02:03.473Z,99295.78
2024-02-24T15:04:34.193Z,99297.17
2024-02-24T15:07:05.946Z,99306.21
2024-02-24T15:09:37.103Z,99303.80
2024-02-24T15:12:09.644Z,99302.10
2024-02-24T15:14:41.858Z,99299.36
2024-02-24T15:17:12.646Z,99305.66
2024-02-24T15:19:46.550Z,99297.74
2024-02-24T15:22:17.519Z,99299.56
2024-02-24T15:24:48.365Z,99298.83
2024-02-24T15:27:19.385Z,99302.70
2024-02-24T15:29:50.236Z,99306.05
2024-02-24T15:32:23.027Z,99314.64
2024-02-24T15:34:53.888Z,99319.77
2024-02-24T15:37:24.856Z,99323.40
2024-02-24T15:39:55.546Z,99328.22
2024-02-24T15:42:26.287Z,99329.33
2024-02-24T15:44:58.395Z,99327.50
2024-02-24T15:47:29.358Z,99331.14
2024-02-24T15:50:00.232Z,99336.63
2024-02-24T15:52:30.952Z,99344.78
2024-02-24T15:55:01.848Z,99346.71
2024-02-24T15:57:32.553Z,99353.88
2024-02-24T16:00:03.220Z,99355.97
2024-02-24T16:02:53.924Z,99360.20
2024-02-24T16:05:24.788Z,99365.04
2024-02-24T16:07:55.593Z,99365.13
2024-02-24T16:10:26.305Z,99368.52
2024-02-24T16:12:57.611Z,99376.09
2024-02-24T16:15:28.767Z,99381.90
2024-02-24T16:17:59.624Z,99381.77
2024-02-24T16:20:31.815Z,99387.89
2024-02-24T16:23:03.250Z,99392.20
2024-02-24T16:25:33.964Z,99396.40
2024-02-24T16:28:05.216Z,99399.67
2024-02-24T16:30:35.892Z,99407.39
2024-02-24T16:33:07.590Z,99410.61
2024-02-24T16:35:38.467Z,99413.04
2024-02-24T16:38:09.358Z,99415.38
2024-02-24T16:40:39.985Z,99417.91
2024-02-24T16:43:10.726Z,99422.98
2024-02-24T16:45:41.631Z,99422.38
2024-02-24T16:48:16.150Z,99420.32
2024-02-24T16:50:47.220Z,99431.71
2024-02-24T16:53:18.775Z,99435.47
2024-02-24T16:55:49.533Z,99436.64
2024-02-24T16:58:20.345Z,99443.52
2024-02-24T17:00:51.312Z,99441.04
2024-02-24T17:03:22.378Z,99446.52
2024-02-24T17:05:53.180Z,99447.73
2024-02-24T17:08:24.125Z,99448.40
2024-02-24T17:10:55.103Z,99451.48
2024-02-24T17:13:25.795Z,99451.91
2024-02-24T17:15:56.646Z,99449.56
2024-02-24T17:18:33.656Z,99450.50
2024-02-24T17:21:08.408Z,99452.05
2024-02-24T17:23:41.049Z,99450.89
2024-02-24T17:26:11.918Z,99453.71
2024-02-24T17:28:42.621Z,99451.96
2024-02-24T17:31:16.856Z,99457.52
2024-02-24T17:33:48.129Z,99457.24
2024-02-24T17:36:18.953Z,99466.20
2024-02-24T17:38:49.618Z,99475.59
2024-02-24T17:41:20.858Z,99475.92
2024-02-24T17:43:51.589Z,99477.08
2024-02-24T17:46:22.619Z,99481.27
2024-02-24T17:48:53.414Z,99478.13
2024-02-24T17:51:24.256Z,99485.03
2024-02-24T17:53:55.055Z,99483.66
2024-02-24T17:56:25.867Z,99486.96
2024-02-24T17:58:56.704Z,99490.70
2024-02-24T18:01:27.318Z,99493.60
2024-02-24T18:03:59.567Z,99498.60
2024-02-24T18:06:30.773Z,99500.41
2024-02-24T18:09:01.653Z,99498.21
2024-02-24T18:11:32.917Z,99501.02
2024-02-24T18:14:03.952Z,99504.20
2024-02-24T18:16:34.640Z,99503.87
2024-02-24T18:19:07.811Z,99504.90
2024-02-24T18:21:38.750Z,99511.05
2024-02-24T18:24:10.319Z,99517.63
2024-02-24T18:26:41.168Z,99522.61
2024-02-24T18:29:12.042Z,99524.09
2024-02-24T18:31:42.747Z,99524.19
2024-02-24T18:34:13.871Z,99525.67
2024-02-24T18:36:44.800Z,99518.80
2024-02-24T18:39:15.614Z,99516.71
2024-02-24T18:41:46.233Z,99519.66
2024-02-24T18:44:17.241Z,99519.81
2024-02-24T18:46:47.948Z,99513.43
2024-02-24T18:49:18.811Z,99514.78
2024-02-24T18:51:49.889Z,99517.84
2024-02-24T18:54:20.590Z,99521.21
2024-02-24T18:56:51.811Z,99522.95
2024-02-24T18:59:22.666Z,99523.89
2024-02-24T19:01:53.685Z,99524.36
2024-02-24T19:04:24.460Z,99520.52
2024-02-24T19:06:55.346Z,99520.93
2024-02-24T19:09:26.158Z,99523.44
2024-02-24T19:11:57.116Z,99528.13
2024-02-24T19:14:27.842Z,99530.11
2024-02-24T19:16:58.576Z,99531.20
2024-02-24T19:19:29.336Z,99529.66
2024-02-24T19:22:00.110Z,99531.61
2024-02-24T19:24:30.802Z,99531.85
2024-02-24T19:27:01.787Z,99535.97
2024-02-24T19:29:32.469Z,99530.70
2024-02-24T19:32:03.241Z,99532.48
2024-02-24T19:34:34.078Z,99532.99
2024-02-24T19:37:08.968Z,99532.70
2024-02-24T19:39:39.897Z,99534.67
2024-02-24T19:42:10.751Z,99536.80
2024-02-24T19:44:41.682Z,99536.58
2024-02-24T19:47:13.471Z,99534.53
2024-02-24T19:49:44.904Z,99533.64
2024-02-24T19:52:17.091Z,99537.65
2024-02-24T19:54:51.163Z,99538.88
2024-02-24T19:57:21.665Z,99537.50
2024-02-24T19:59:52.538Z,99538.81
2024-02-24T20:02:23.295Z,99541.30
2024-02-24T20:04:53.999Z,99540.05
2024-02-24T20:07:24.849Z,99548.52
2024-02-24T20:09:55.711Z,99546.19
2024-02-24T20:12:26.692Z,99548.06
2024-02-24T20:14:57.554Z,99553.06
2024-02-24T20:17:28.276Z,99558.24
2024-02-24T20:19:59.162Z,99562.05
2024-02-24T20:22:30.333Z,99558.78
2024-02-24T20:25:01.013Z,99558.52
2024-02-24T20:27:31.706Z,99559.55
2024-02-24T20:30:02.603Z,99561.96
2024-02-24T20:32:33.567Z,99561.02
2024-02-24T20:35:05.631Z,99564.03
2024-02-24T20:37:36.402Z,99560.52
2024-02-24T20:40:08.934Z,99564.85
2024-02-24T20:42:39.560Z,99567.83
2024-02-24T20:45:12.978Z,99566.27
2024-02-24T20:47:43.719Z,99564.08
2024-02-24T20:50:14.915Z,99567.89
2024-02-24T20:52:45.593Z,99567.94
2024-02-24T20:55:16.252Z,99567.66
2024-02-24T20:57:47.166Z,99571.59
2024-02-24T21:00:20.388Z,99571.33
2024-02-24T21:02:51.826Z,99570.22
2024-02-24T21:05:22.805Z,99569.82
2024-02-24T21:07:53.602Z,99567.90
2024-02-24T21:10:25.430Z,99567.04
2024-02-24T21:12:56.372Z,99569.46
2024-02-24T21:15:27.032Z,99565.56
2024-02-24T21:17:57.694Z,99564.09
2024-02-24T21:20:28.443Z,99567.01
2024-02-24T21:22:59.114Z,99567.61
2024-02-24T21:25:30.519Z,99569.10
2024-02-24T21:28:07.230Z,99568.94
2024-02-24T21:30:38.162Z,99576.34
2024-02-24T21:33:09.515Z,99573.59
2024-02-24T21:35:41.435Z,99574.03
2024-02-24T21:38:12.246Z,99574.16
2024-02-24T21:40:43.436Z,99577.80
2024-02-24T21:43:14.219Z,99580.41
2024-02-24T21:45:46.883Z,99584.52
2024-02-24T21:48:17.957Z,99584.95
2024-02-24T21:50:49.999Z,99582.00
2024-02-24T21:53:20.873Z,99574.17
2024-02-24T21:55:51.606Z,99574.83
2024-02-24T21:58:22.357Z,99575.82
2024-02-24T22:00:53.462Z,99577.11
2024-02-24T22:03:24.240Z,99582.13
2024-02-24T22:05:55.243Z,99580.12
2024-02-24T22:08:26.142Z,99577.45
2024-02-24T22:10:56.837Z,99578.23
2024-02-24T22:13:27.664Z,99573.54
2024-02-24T22:15:59.425Z,99570.60
2024-02-24T22:18:30.317Z,99576.45
2024-02-24T22:21:01.108Z,99580.81
2024-02-24T22:23:31.864Z,99578.95
2024-02-24T22:26:02.709Z,99577.02
2024-02-24T22:28:33.541Z,99578.44
2024-02-24T22:31:04.540Z,99576.41
2024-02-24T22:33:35.867Z,99577.09
2024-02-24T22:36:07.711Z,99576.76
2024-02-24T22:38:38.580Z,99578.46
2024-02-24T22:41:10.241Z,99581.53
2024-02-24T22:43:40.923Z,99582.13
2024-02-24T22:46:11.583Z,99583.46
2024-02-24T22:48:42.291Z,99587.63
2024-02-24T22:51:13.141Z,99591.35
2024-02-24T22:53:43.827Z,99591.96
2024-02-24T22:56:14.623Z,99596.38
2024-02-24T22:58:46.361Z,99601.30
2024-02-24T23:01:17.547Z,99603.44
2024-02-24T23:03:48.440Z,99604.22
2024-02-24T23:06:19.228Z,99599.65
2024-02-24T23:08:50.836Z,99607.02
2024-02-24T23:11:29.841Z,99605.90
2024-02-24T23:14:09.404Z,99608.64
2024-02-24T23:16:40.610Z,99609.14
2024-02-24T23:19:11.464Z,99610.27
2024-02-24T23:21:43.554Z,99608.24
2024-02-24T23:24:14.346Z,99604.02
2024-02-24T23:26:45.642Z,99607.41
2024-02-24T23:29:16.435Z,99606.05
2024-02-24T23:31:47.320Z,99606.98
2024-02-24T23:34:18.346Z,99606.27
2024-02-24T23:36:49.080Z,99609.39
2024-02-24T23:39:19.845Z,99609.06
2024-02-24T23:41:53.571Z,99613.09
2024-02-24T23:44:24.829Z,99612.46
2024-02-24T23:46:55.976Z,99614.82
2024-02-24T23:49:26.712Z,99615.27
2024-02-24T23:51:57.590Z,99619.02
2024-02-24T23:54:28.355Z,99618.20
2024-02-24T23:56:59.007Z,99616.33
2024-02-24T23:59:29.808Z,99611.73
